Las Vegas, Nevada
Traffic Map
Current Weather Conditions
Las Vegas, Nevada
Broken Clouds
Broken Clouds
28°
Feels Like: 28°
Wind Chill: 28° Ceiling: 22000
Heat Index: 28° Visibility: 10mi
Dew Point: Wind: 13mph
Humidity: 30% Direction: 180° (S)
Pressure: 29.92in Gusts: 0mph
Raw Report DataKLAS 220156Z 18011KT 10SM FEW100 SCT150 BKN220 28/09 A2992 RMK AO2 SLP107 T02780089
Traffic Incident Summary
Active as of:
Severity:
Category:
InformationThere was an issue retrieving the traffic information for this location. Please try a different location or try again shortly.
Advertisements
Track Severe Weather on mobile